sensor_id;sensor_type;location;lat;lon;timestamp;P1;durP1;ratioP1;P2;durP2;ratioP2
43919;SDS011;29578;51.946;5.874;2022-09-09T00:01:51;0.32;;;0.32;;
43919;SDS011;29578;51.946;5.874;2022-09-09T00:04:35;0.85;;;0.30;;
43919;SDS011;29578;51.946;5.874;2022-09-09T00:09:53;0.40;;;0.40;;
43919;SDS011;29578;51.946;5.874;2022-09-09T00:12:43;0.30;;;0.30;;
43919;SDS011;29578;51.946;5.874;2022-09-09T00:15:22;0.30;;;0.30;;
43919;SDS011;29578;51.946;5.874;2022-09-09T00:17:56;0.20;;;0.20;;
43919;SDS011;29578;51.946;5.874;2022-09-09T00:20:39;0.47;;;0.40;;
43919;SDS011;29578;51.946;5.874;2022-09-09T00:23:24;0.20;;;0.20;;
43919;SDS011;29578;51.946;5.874;2022-09-09T00:26:11;0.97;;;0.30;;
43919;SDS011;29578;51.946;5.874;2022-09-09T00:28:58;0.20;;;0.20;;
43919;SDS011;29578;51.946;5.874;2022-09-09T00:31:38;0.20;;;0.20;;
43919;SDS011;29578;51.946;5.874;2022-09-09T00:34:08;0.30;;;0.20;;
43919;SDS011;29578;51.946;5.874;2022-09-09T00:36:40;0.30;;;0.30;;
43919;SDS011;29578;51.946;5.874;2022-09-09T00:39:09;0.38;;;0.38;;
43919;SDS011;29578;51.946;5.874;2022-09-09T00:42:02;0.25;;;0.25;;
43919;SDS011;29578;51.946;5.874;2022-09-09T00:44:51;0.10;;;0.10;;
43919;SDS011;29578;51.946;5.874;2022-09-09T00:47:31;0.20;;;0.20;;
43919;SDS011;29578;51.946;5.874;2022-09-09T00:50:26;0.20;;;0.20;;
43919;SDS011;29578;51.946;5.874;2022-09-09T00:56:13;0.20;;;0.20;;
43919;SDS011;29578;51.946;5.874;2022-09-09T00:58:43;0.20;;;0.20;;
43919;SDS011;29578;51.946;5.874;2022-09-09T01:01:24;0.15;;;0.15;;
43919;SDS011;29578;51.946;5.874;2022-09-09T01:03:54;0.20;;;0.20;;
43919;SDS011;29578;51.946;5.874;2022-09-09T01:06:31;0.32;;;0.20;;
43919;SDS011;29578;51.946;5.874;2022-09-09T01:09:02;0.30;;;0.30;;
43919;SDS011;29578;51.946;5.874;2022-09-09T01:14:41;1.23;;;0.20;;
43919;SDS011;29578;51.946;5.874;2022-09-09T01:17:15;0.20;;;0.20;;
43919;SDS011;29578;51.946;5.874;2022-09-09T01:22:33;0.20;;;0.20;;
43919;SDS011;29578;51.946;5.874;2022-09-09T01:25:14;0.30;;;0.30;;
43919;SDS011;29578;51.946;5.874;2022-09-09T01:27:50;0.20;;;0.20;;
43919;SDS011;29578;51.946;5.874;2022-09-09T01:30:20;0.20;;;0.20;;
43919;SDS011;29578;51.946;5.874;2022-09-09T01:32:49;0.17;;;0.17;;
43919;SDS011;29578;51.946;5.874;2022-09-09T01:35:22;0.50;;;0.20;;
43919;SDS011;29578;51.946;5.874;2022-09-09T01:38:06;0.25;;;0.20;;
43919;SDS011;29578;51.946;5.874;2022-09-09T01:40:32;0.82;;;0.17;;
43919;SDS011;29578;51.946;5.874;2022-09-09T01:42:58;0.20;;;0.20;;
43919;SDS011;29578;51.946;5.874;2022-09-09T01:45:24;0.20;;;0.20;;
43919;SDS011;29578;51.946;5.874;2022-09-09T01:47:51;0.10;;;0.10;;
43919;SDS011;29578;51.946;5.874;2022-09-09T01:50:18;0.10;;;0.10;;
43919;SDS011;29578;51.946;5.874;2022-09-09T01:52:45;0.47;;;0.20;;
43919;SDS011;29578;51.946;5.874;2022-09-09T01:55:14;0.20;;;0.20;;
43919;SDS011;29578;51.946;5.874;2022-09-09T02:00:42;0.10;;;0.10;;
43919;SDS011;29578;51.946;5.874;2022-09-09T02:03:20;0.20;;;0.20;;
43919;SDS011;29578;51.946;5.874;2022-09-09T02:06:03;0.20;;;0.20;;
43919;SDS011;29578;51.946;5.874;2022-09-09T02:08:43;0.20;;;0.20;;
43919;SDS011;29578;51.946;5.874;2022-09-09T02:11:15;0.20;;;0.20;;
43919;SDS011;29578;51.946;5.874;2022-09-09T02:13:44;0.20;;;0.20;;
43919;SDS011;29578;51.946;5.874;2022-09-09T02:16:15;0.20;;;0.20;;
43919;SDS011;29578;51.946;5.874;2022-09-09T02:18:51;0.13;;;0.13;;
43919;SDS011;29578;51.946;5.874;2022-09-09T02:21:23;0.65;;;0.30;;
43919;SDS011;29578;51.946;5.874;2022-09-09T02:23:50;0.20;;;0.20;;
43919;SDS011;29578;51.946;5.874;2022-09-09T02:26:18;0.28;;;0.20;;
43919;SDS011;29578;51.946;5.874;2022-09-09T02:28:48;0.10;;;0.10;;
43919;SDS011;29578;51.946;5.874;2022-09-09T02:31:16;0.55;;;0.20;;
43919;SDS011;29578;51.946;5.874;2022-09-09T02:33:45;0.20;;;0.20;;
43919;SDS011;29578;51.946;5.874;2022-09-09T02:36:14;0.20;;;0.20;;
43919;SDS011;29578;51.946;5.874;2022-09-09T02:38:43;0.25;;;0.25;;
43919;SDS011;29578;51.946;5.874;2022-09-09T02:41:15;0.40;;;0.30;;
43919;SDS011;29578;51.946;5.874;2022-09-09T02:43:44;0.43;;;0.20;;
43919;SDS011;29578;51.946;5.874;2022-09-09T02:49:18;0.20;;;0.20;;
43919;SDS011;29578;51.946;5.874;2022-09-09T02:54:41;0.22;;;0.22;;
43919;SDS011;29578;51.946;5.874;2022-09-09T02:59:49;0.20;;;0.20;;
43919;SDS011;29578;51.946;5.874;2022-09-09T03:02:17;0.20;;;0.20;;
43919;SDS011;29578;51.946;5.874;2022-09-09T03:04:43;0.32;;;0.30;;
43919;SDS011;29578;51.946;5.874;2022-09-09T03:07:10;0.20;;;0.20;;
43919;SDS011;29578;51.946;5.874;2022-09-09T03:09:37;0.20;;;0.20;;
43919;SDS011;29578;51.946;5.874;2022-09-09T03:12:02;0.20;;;0.20;;
43919;SDS011;29578;51.946;5.874;2022-09-09T03:14:29;0.43;;;0.20;;
43919;SDS011;29578;51.946;5.874;2022-09-09T03:16:56;0.20;;;0.20;;
43919;SDS011;29578;51.946;5.874;2022-09-09T03:19:26;0.20;;;0.20;;
43919;SDS011;29578;51.946;5.874;2022-09-09T03:21:53;0.20;;;0.20;;
43919;SDS011;29578;51.946;5.874;2022-09-09T03:24:19;0.45;;;0.20;;
43919;SDS011;29578;51.946;5.874;2022-09-09T03:26:45;0.15;;;0.15;;
43919;SDS011;29578;51.946;5.874;2022-09-09T03:29:12;0.75;;;0.20;;
43919;SDS011;29578;51.946;5.874;2022-09-09T03:31:38;0.20;;;0.20;;
43919;SDS011;29578;51.946;5.874;2022-09-09T03:34:04;0.20;;;0.20;;
43919;SDS011;29578;51.946;5.874;2022-09-09T03:36:32;0.35;;;0.30;;
43919;SDS011;29578;51.946;5.874;2022-09-09T03:38:58;0.20;;;0.20;;
43919;SDS011;29578;51.946;5.874;2022-09-09T03:41:24;0.20;;;0.20;;
43919;SDS011;29578;51.946;5.874;2022-09-09T03:43:51;0.20;;;0.20;;
43919;SDS011;29578;51.946;5.874;2022-09-09T03:46:18;0.20;;;0.20;;
43919;SDS011;29578;51.946;5.874;2022-09-09T03:48:44;0.20;;;0.20;;
43919;SDS011;29578;51.946;5.874;2022-09-09T03:51:10;0.30;;;0.30;;
43919;SDS011;29578;51.946;5.874;2022-09-09T03:53:36;0.40;;;0.30;;
43919;SDS011;29578;51.946;5.874;2022-09-09T03:56:03;0.20;;;0.20;;
43919;SDS011;29578;51.946;5.874;2022-09-09T03:58:32;0.20;;;0.20;;
43919;SDS011;29578;51.946;5.874;2022-09-09T04:00:59;0.30;;;0.30;;
43919;SDS011;29578;51.946;5.874;2022-09-09T04:03:27;0.30;;;0.20;;
43919;SDS011;29578;51.946;5.874;2022-09-09T04:05:54;0.30;;;0.30;;
43919;SDS011;29578;51.946;5.874;2022-09-09T04:08:21;0.15;;;0.15;;
43919;SDS011;29578;51.946;5.874;2022-09-09T04:10:48;0.80;;;0.38;;
43919;SDS011;29578;51.946;5.874;2022-09-09T04:13:15;0.20;;;0.20;;
43919;SDS011;29578;51.946;5.874;2022-09-09T04:15:42;0.20;;;0.20;;
43919;SDS011;29578;51.946;5.874;2022-09-09T04:18:08;0.40;;;0.40;;
43919;SDS011;29578;51.946;5.874;2022-09-09T04:20:35;0.20;;;0.20;;
43919;SDS011;29578;51.946;5.874;2022-09-09T04:23:00;0.20;;;0.20;;
43919;SDS011;29578;51.946;5.874;2022-09-09T04:25:26;0.30;;;0.30;;
43919;SDS011;29578;51.946;5.874;2022-09-09T04:27:55;0.20;;;0.20;;
43919;SDS011;29578;51.946;5.874;2022-09-09T04:30:22;0.30;;;0.30;;
43919;SDS011;29578;51.946;5.874;2022-09-09T04:32:49;0.20;;;0.20;;
43919;SDS011;29578;51.946;5.874;2022-09-09T04:35:15;0.47;;;0.30;;
43919;SDS011;29578;51.946;5.874;2022-09-09T04:37:41;0.30;;;0.30;;
43919;SDS011;29578;51.946;5.874;2022-09-09T04:40:07;0.30;;;0.30;;
43919;SDS011;29578;51.946;5.874;2022-09-09T04:42:35;0.32;;;0.32;;
43919;SDS011;29578;51.946;5.874;2022-09-09T04:45:02;0.80;;;0.40;;
43919;SDS011;29578;51.946;5.874;2022-09-09T04:47:28;0.40;;;0.40;;
43919;SDS011;29578;51.946;5.874;2022-09-09T04:49:54;0.77;;;0.43;;
43919;SDS011;29578;51.946;5.874;2022-09-09T04:52:20;0.43;;;0.30;;
43919;SDS011;29578;51.946;5.874;2022-09-09T04:54:46;0.32;;;0.28;;
43919;SDS011;29578;51.946;5.874;2022-09-09T04:57:12;0.38;;;0.38;;
43919;SDS011;29578;51.946;5.874;2022-09-09T04:59:38;0.50;;;0.32;;
43919;SDS011;29578;51.946;5.874;2022-09-09T05:02:06;0.80;;;0.45;;
43919;SDS011;29578;51.946;5.874;2022-09-09T05:04:32;0.70;;;0.40;;
43919;SDS011;29578;51.946;5.874;2022-09-09T05:06:58;0.40;;;0.40;;
43919;SDS011;29578;51.946;5.874;2022-09-09T05:09:24;0.30;;;0.30;;
43919;SDS011;29578;51.946;5.874;2022-09-09T05:11:50;0.40;;;0.40;;
43919;SDS011;29578;51.946;5.874;2022-09-09T05:14:16;0.82;;;0.40;;
43919;SDS011;29578;51.946;5.874;2022-09-09T05:16:44;0.47;;;0.38;;
43919;SDS011;29578;51.946;5.874;2022-09-09T05:19:10;1.00;;;0.40;;
43919;SDS011;29578;51.946;5.874;2022-09-09T05:21:36;0.85;;;0.47;;
43919;SDS011;29578;51.946;5.874;2022-09-09T05:24:02;0.30;;;0.30;;
43919;SDS011;29578;51.946;5.874;2022-09-09T05:26:28;0.88;;;0.50;;
43919;SDS011;29578;51.946;5.874;2022-09-09T05:28:54;0.88;;;0.50;;
43919;SDS011;29578;51.946;5.874;2022-09-09T05:31:20;1.90;;;0.40;;
43919;SDS011;29578;51.946;5.874;2022-09-09T05:33:46;0.95;;;0.50;;
43919;SDS011;29578;51.946;5.874;2022-09-09T05:36:15;0.77;;;0.40;;
43919;SDS011;29578;51.946;5.874;2022-09-09T05:38:43;0.82;;;0.55;;
43919;SDS011;29578;51.946;5.874;2022-09-09T05:41:10;1.42;;;0.50;;
43919;SDS011;29578;51.946;5.874;2022-09-09T05:43:37;1.20;;;0.55;;
43919;SDS011;29578;51.946;5.874;2022-09-09T05:46:05;2.20;;;0.40;;
43919;SDS011;29578;51.946;5.874;2022-09-09T05:48:34;0.52;;;0.50;;
43919;SDS011;29578;51.946;5.874;2022-09-09T05:51:04;1.35;;;0.50;;
43919;SDS011;29578;51.946;5.874;2022-09-09T05:53:33;0.65;;;0.43;;
43919;SDS011;29578;51.946;5.874;2022-09-09T05:56:04;0.63;;;0.52;;
43919;SDS011;29578;51.946;5.874;2022-09-09T05:58:36;0.85;;;0.40;;
43919;SDS011;29578;51.946;5.874;2022-09-09T06:01:03;1.20;;;0.50;;
43919;SDS011;29578;51.946;5.874;2022-09-09T06:03:32;1.55;;;0.50;;
43919;SDS011;29578;51.946;5.874;2022-09-09T06:06:00;1.02;;;0.38;;
43919;SDS011;29578;51.946;5.874;2022-09-09T06:08:30;0.32;;;0.22;;
43919;SDS011;29578;51.946;5.874;2022-09-09T06:11:10;0.32;;;0.30;;
43919;SDS011;29578;51.946;5.874;2022-09-09T06:13:38;0.40;;;0.40;;
43919;SDS011;29578;51.946;5.874;2022-09-09T06:16:07;0.93;;;0.40;;
43919;SDS011;29578;51.946;5.874;2022-09-09T06:18:36;0.85;;;0.40;;
43919;SDS011;29578;51.946;5.874;2022-09-09T06:21:04;0.50;;;0.40;;
43919;SDS011;29578;51.946;5.874;2022-09-09T06:23:32;0.95;;;0.40;;
43919;SDS011;29578;51.946;5.874;2022-09-09T06:26:01;1.40;;;0.50;;
43919;SDS011;29578;51.946;5.874;2022-09-09T06:28:31;0.63;;;0.60;;
43919;SDS011;29578;51.946;5.874;2022-09-09T06:30:59;0.57;;;0.50;;
43919;SDS011;29578;51.946;5.874;2022-09-09T06:33:26;1.27;;;0.50;;
43919;SDS011;29578;51.946;5.874;2022-09-09T06:35:53;0.60;;;0.60;;
43919;SDS011;29578;51.946;5.874;2022-09-09T06:38:20;0.68;;;0.38;;
43919;SDS011;29578;51.946;5.874;2022-09-09T06:40:51;0.80;;;0.57;;
43919;SDS011;29578;51.946;5.874;2022-09-09T06:43:19;1.58;;;0.50;;
43919;SDS011;29578;51.946;5.874;2022-09-09T06:45:52;0.88;;;0.60;;
43919;SDS011;29578;51.946;5.874;2022-09-09T06:48:21;1.38;;;0.73;;
43919;SDS011;29578;51.946;5.874;2022-09-09T06:50:47;1.30;;;0.60;;
43919;SDS011;29578;51.946;5.874;2022-09-09T06:53:16;1.48;;;0.70;;
43919;SDS011;29578;51.946;5.874;2022-09-09T06:55:44;1.55;;;0.68;;
43919;SDS011;29578;51.946;5.874;2022-09-09T06:58:10;1.15;;;0.60;;
43919;SDS011;29578;51.946;5.874;2022-09-09T07:00:36;1.02;;;0.80;;
43919;SDS011;29578;51.946;5.874;2022-09-09T07:03:03;0.60;;;0.60;;
43919;SDS011;29578;51.946;5.874;2022-09-09T07:05:31;1.35;;;0.90;;
43919;SDS011;29578;51.946;5.874;2022-09-09T07:07:57;1.20;;;0.60;;
43919;SDS011;29578;51.946;5.874;2022-09-09T07:10:23;1.15;;;0.60;;
43919;SDS011;29578;51.946;5.874;2022-09-09T07:12:51;1.00;;;0.68;;
43919;SDS011;29578;51.946;5.874;2022-09-09T07:15:18;1.48;;;0.70;;
43919;SDS011;29578;51.946;5.874;2022-09-09T07:17:44;0.90;;;0.60;;
43919;SDS011;29578;51.946;5.874;2022-09-09T07:20:10;1.30;;;0.80;;
43919;SDS011;29578;51.946;5.874;2022-09-09T07:22:36;0.82;;;0.68;;
43919;SDS011;29578;51.946;5.874;2022-09-09T07:25:03;2.58;;;0.70;;
43919;SDS011;29578;51.946;5.874;2022-09-09T07:27:29;2.05;;;0.80;;
43919;SDS011;29578;51.946;5.874;2022-09-09T07:29:55;1.25;;;0.70;;
43919;SDS011;29578;51.946;5.874;2022-09-09T07:32:22;1.35;;;0.68;;
43919;SDS011;29578;51.946;5.874;2022-09-09T07:34:48;1.80;;;0.90;;
43919;SDS011;29578;51.946;5.874;2022-09-09T07:37:15;1.20;;;0.70;;
43919;SDS011;29578;51.946;5.874;2022-09-09T07:39:42;2.55;;;0.90;;
43919;SDS011;29578;51.946;5.874;2022-09-09T07:42:07;2.90;;;0.90;;
43919;SDS011;29578;51.946;5.874;2022-09-09T07:44:35;2.13;;;0.93;;
43919;SDS011;29578;51.946;5.874;2022-09-09T07:47:01;2.85;;;0.90;;
43919;SDS011;29578;51.946;5.874;2022-09-09T07:49:28;3.83;;;1.00;;
43919;SDS011;29578;51.946;5.874;2022-09-09T07:51:53;2.00;;;0.80;;
43919;SDS011;29578;51.946;5.874;2022-09-09T07:54:19;1.05;;;0.63;;
43919;SDS011;29578;51.946;5.874;2022-09-09T07:56:48;1.48;;;0.77;;
43919;SDS011;29578;51.946;5.874;2022-09-09T07:59:14;0.95;;;0.50;;
43919;SDS011;29578;51.946;5.874;2022-09-09T08:01:43;1.50;;;0.80;;
43919;SDS011;29578;51.946;5.874;2022-09-09T08:04:11;1.13;;;0.60;;
43919;SDS011;29578;51.946;5.874;2022-09-09T08:06:41;0.82;;;0.60;;
43919;SDS011;29578;51.946;5.874;2022-09-09T08:09:09;1.23;;;0.88;;
43919;SDS011;29578;51.946;5.874;2022-09-09T08:11:35;2.00;;;0.80;;
43919;SDS011;29578;51.946;5.874;2022-09-09T08:14:02;0.70;;;0.63;;
43919;SDS011;29578;51.946;5.874;2022-09-09T08:16:30;1.42;;;0.75;;
43919;SDS011;29578;51.946;5.874;2022-09-09T08:18:57;2.50;;;0.70;;
43919;SDS011;29578;51.946;5.874;2022-09-09T08:21:25;0.95;;;0.80;;
43919;SDS011;29578;51.946;5.874;2022-09-09T08:23:53;1.55;;;0.77;;
43919;SDS011;29578;51.946;5.874;2022-09-09T08:26:22;2.33;;;0.88;;
43919;SDS011;29578;51.946;5.874;2022-09-09T08:28:49;0.93;;;0.60;;
43919;SDS011;29578;51.946;5.874;2022-09-09T08:31:18;1.88;;;1.00;;
43919;SDS011;29578;51.946;5.874;2022-09-09T08:33:46;1.95;;;0.73;;
43919;SDS011;29578;51.946;5.874;2022-09-09T08:36:14;1.45;;;0.80;;
43919;SDS011;29578;51.946;5.874;2022-09-09T08:38:42;2.70;;;0.70;;
43919;SDS011;29578;51.946;5.874;2022-09-09T08:41:14;3.05;;;0.80;;
43919;SDS011;29578;51.946;5.874;2022-09-09T08:43:58;3.15;;;0.77;;
43919;SDS011;29578;51.946;5.874;2022-09-09T08:46:35;1.25;;;0.73;;
43919;SDS011;29578;51.946;5.874;2022-09-09T08:49:38;1.95;;;0.70;;
43919;SDS011;29578;51.946;5.874;2022-09-09T08:52:29;0.45;;;0.35;;
43919;SDS011;29578;51.946;5.874;2022-09-09T08:55:05;2.28;;;0.70;;
43919;SDS011;29578;51.946;5.874;2022-09-09T08:57:46;0.50;;;0.50;;
43919;SDS011;29578;51.946;5.874;2022-09-09T09:00:14;3.20;;;0.77;;
43919;SDS011;29578;51.946;5.874;2022-09-09T09:02:46;2.55;;;0.80;;
43919;SDS011;29578;51.946;5.874;2022-09-09T09:05:23;1.20;;;0.70;;
43919;SDS011;29578;51.946;5.874;2022-09-09T09:10:56;1.45;;;0.88;;
43919;SDS011;29578;51.946;5.874;2022-09-09T09:13:34;2.42;;;0.80;;
43919;SDS011;29578;51.946;5.874;2022-09-09T09:16:13;2.17;;;0.70;;
43919;SDS011;29578;51.946;5.874;2022-09-09T09:18:44;2.33;;;0.80;;
43919;SDS011;29578;51.946;5.874;2022-09-09T09:24:09;2.25;;;0.50;;
43919;SDS011;29578;51.946;5.874;2022-09-09T09:26:44;2.10;;;0.85;;
43919;SDS011;29578;51.946;5.874;2022-09-09T09:29:10;1.35;;;0.70;;
43919;SDS011;29578;51.946;5.874;2022-09-09T09:31:41;1.10;;;0.70;;
43919;SDS011;29578;51.946;5.874;2022-09-09T09:34:13;2.20;;;0.70;;
43919;SDS011;29578;51.946;5.874;2022-09-09T09:36:40;1.27;;;0.70;;
43919;SDS011;29578;51.946;5.874;2022-09-09T09:39:09;1.23;;;0.52;;
43919;SDS011;29578;51.946;5.874;2022-09-09T09:41:39;1.92;;;0.70;;
43919;SDS011;29578;51.946;5.874;2022-09-09T09:52:21;0.93;;;0.60;;
43919;SDS011;29578;51.946;5.874;2022-09-09T09:54:49;1.00;;;0.60;;
43919;SDS011;29578;51.946;5.874;2022-09-09T09:57:17;1.48;;;0.70;;
43919;SDS011;29578;51.946;5.874;2022-09-09T09:59:47;2.05;;;0.73;;
43919;SDS011;29578;51.946;5.874;2022-09-09T10:02:14;1.48;;;0.63;;
43919;SDS011;29578;51.946;5.874;2022-09-09T10:04:42;1.23;;;0.63;;
43919;SDS011;29578;51.946;5.874;2022-09-09T10:07:12;2.03;;;0.70;;
43919;SDS011;29578;51.946;5.874;2022-09-09T10:09:42;1.52;;;0.88;;
43919;SDS011;29578;51.946;5.874;2022-09-09T10:26:55;1.35;;;0.68;;
43919;SDS011;29578;51.946;5.874;2022-09-09T10:32:42;1.85;;;0.80;;
43919;SDS011;29578;51.946;5.874;2022-09-09T10:35:24;2.28;;;0.75;;
43919;SDS011;29578;51.946;5.874;2022-09-09T10:40:50;2.05;;;0.75;;
43919;SDS011;29578;51.946;5.874;2022-09-09T10:46:36;1.52;;;0.65;;
43919;SDS011;29578;51.946;5.874;2022-09-09T10:52:14;1.00;;;0.60;;
43919;SDS011;29578;51.946;5.874;2022-09-09T10:54:53;2.03;;;0.70;;
43919;SDS011;29578;51.946;5.874;2022-09-09T10:57:40;1.35;;;0.73;;
43919;SDS011;29578;51.946;5.874;2022-09-09T11:00:27;2.85;;;1.13;;
43919;SDS011;29578;51.946;5.874;2022-09-09T11:03:19;1.60;;;0.70;;
43919;SDS011;29578;51.946;5.874;2022-09-09T11:05:51;1.95;;;0.70;;
43919;SDS011;29578;51.946;5.874;2022-09-09T11:08:23;2.17;;;0.88;;
43919;SDS011;29578;51.946;5.874;2022-09-09T11:10:53;1.13;;;0.70;;
43919;SDS011;29578;51.946;5.874;2022-09-09T11:13:37;2.47;;;0.88;;
43919;SDS011;29578;51.946;5.874;2022-09-09T11:16:17;1.77;;;0.88;;
43919;SDS011;29578;51.946;5.874;2022-09-09T11:19:04;2.28;;;0.73;;
43919;SDS011;29578;51.946;5.874;2022-09-09T11:21:40;0.93;;;0.82;;
43919;SDS011;29578;51.946;5.874;2022-09-09T11:24:13;1.98;;;0.80;;
43919;SDS011;29578;51.946;5.874;2022-09-09T11:26:49;1.73;;;0.68;;
43919;SDS011;29578;51.946;5.874;2022-09-09T11:29:26;0.95;;;0.60;;
43919;SDS011;29578;51.946;5.874;2022-09-09T11:32:09;2.00;;;0.90;;
43919;SDS011;29578;51.946;5.874;2022-09-09T11:35:06;1.00;;;0.70;;
43919;SDS011;29578;51.946;5.874;2022-09-09T11:37:53;1.23;;;0.83;;
43919;SDS011;29578;51.946;5.874;2022-09-09T11:40:32;0.60;;;0.60;;
43919;SDS011;29578;51.946;5.874;2022-09-09T11:43:07;1.27;;;0.68;;
43919;SDS011;29578;51.946;5.874;2022-09-09T11:45:37;2.15;;;0.90;;
43919;SDS011;29578;51.946;5.874;2022-09-09T11:48:05;2.05;;;0.85;;
43919;SDS011;29578;51.946;5.874;2022-09-09T11:50:58;1.80;;;0.75;;
43919;SDS011;29578;51.946;5.874;2022-09-09T11:53:25;1.92;;;0.70;;
43919;SDS011;29578;51.946;5.874;2022-09-09T11:58:36;1.35;;;0.93;;
43919;SDS011;29578;51.946;5.874;2022-09-09T12:01:14;0.95;;;0.60;;
43919;SDS011;29578;51.946;5.874;2022-09-09T12:03:52;1.15;;;0.65;;
43919;SDS011;29578;51.946;5.874;2022-09-09T12:06:31;1.52;;;0.50;;
43919;SDS011;29578;51.946;5.874;2022-09-09T12:08:58;0.68;;;0.60;;
43919;SDS011;29578;51.946;5.874;2022-09-09T12:11:48;1.48;;;0.80;;
43919;SDS011;29578;51.946;5.874;2022-09-09T12:14:22;1.13;;;0.73;;
43919;SDS011;29578;51.946;5.874;2022-09-09T12:19:44;1.15;;;0.60;;
43919;SDS011;29578;51.946;5.874;2022-09-09T12:25:02;0.40;;;0.40;;
43919;SDS011;29578;51.946;5.874;2022-09-09T12:27:45;0.82;;;0.75;;
43919;SDS011;29578;51.946;5.874;2022-09-09T12:30:21;1.85;;;0.52;;
43919;SDS011;29578;51.946;5.874;2022-09-09T12:32:48;2.47;;;0.70;;
43919;SDS011;29578;51.946;5.874;2022-09-09T12:35:27;0.93;;;0.70;;
43919;SDS011;29578;51.946;5.874;2022-09-09T12:37:57;0.70;;;0.70;;
43919;SDS011;29578;51.946;5.874;2022-09-09T12:40:27;2.22;;;0.80;;
43919;SDS011;29578;51.946;5.874;2022-09-09T12:42:54;0.80;;;0.70;;
43919;SDS011;29578;51.946;5.874;2022-09-09T12:45:22;1.60;;;0.70;;
43919;SDS011;29578;51.946;5.874;2022-09-09T12:47:52;0.47;;;0.47;;
43919;SDS011;29578;51.946;5.874;2022-09-09T12:50:23;0.50;;;0.40;;
43919;SDS011;29578;51.946;5.874;2022-09-09T12:52:54;0.43;;;0.43;;
43919;SDS011;29578;51.946;5.874;2022-09-09T12:55:25;0.70;;;0.50;;
43919;SDS011;29578;51.946;5.874;2022-09-09T13:00:22;1.50;;;0.88;;
43919;SDS011;29578;51.946;5.874;2022-09-09T13:02:51;0.77;;;0.60;;
43919;SDS011;29578;51.946;5.874;2022-09-09T13:05:20;1.40;;;0.70;;
43919;SDS011;29578;51.946;5.874;2022-09-09T13:07:49;0.90;;;0.57;;
43919;SDS011;29578;51.946;5.874;2022-09-09T13:10:20;1.23;;;0.60;;
43919;SDS011;29578;51.946;5.874;2022-09-09T13:12:49;0.80;;;0.63;;
43919;SDS011;29578;51.946;5.874;2022-09-09T13:15:18;1.17;;;0.60;;
43919;SDS011;29578;51.946;5.874;2022-09-09T13:18:06;1.13;;;0.77;;
43919;SDS011;29578;51.946;5.874;2022-09-09T13:20:38;0.73;;;0.60;;
43919;SDS011;29578;51.946;5.874;2022-09-09T13:23:04;0.68;;;0.50;;
43919;SDS011;29578;51.946;5.874;2022-09-09T13:25:30;1.15;;;0.50;;
43919;SDS011;29578;51.946;5.874;2022-09-09T13:28:00;2.17;;;0.85;;
43919;SDS011;29578;51.946;5.874;2022-09-09T13:30:36;0.45;;;0.40;;
43919;SDS011;29578;51.946;5.874;2022-09-09T13:33:21;0.30;;;0.30;;
43919;SDS011;29578;51.946;5.874;2022-09-09T13:35:56;1.08;;;0.60;;
43919;SDS011;29578;51.946;5.874;2022-09-09T13:38:24;1.65;;;0.73;;
43919;SDS011;29578;51.946;5.874;2022-09-09T13:40:53;1.63;;;0.80;;
43919;SDS011;29578;51.946;5.874;2022-09-09T13:43:23;0.88;;;0.52;;
43919;SDS011;29578;51.946;5.874;2022-09-09T13:45:59;0.77;;;0.50;;
43919;SDS011;29578;51.946;5.874;2022-09-09T13:48:26;1.13;;;0.70;;
43919;SDS011;29578;51.946;5.874;2022-09-09T13:50:54;1.10;;;0.60;;
43919;SDS011;29578;51.946;5.874;2022-09-09T13:53:21;0.85;;;0.52;;
43919;SDS011;29578;51.946;5.874;2022-09-09T13:55:47;1.00;;;0.57;;
43919;SDS011;29578;51.946;5.874;2022-09-09T13:58:15;1.73;;;0.60;;
43919;SDS011;29578;51.946;5.874;2022-09-09T14:00:43;0.75;;;0.50;;
43919;SDS011;29578;51.946;5.874;2022-09-09T14:03:10;2.42;;;0.63;;
43919;SDS011;29578;51.946;5.874;2022-09-09T14:05:36;1.35;;;0.60;;
43919;SDS011;29578;51.946;5.874;2022-09-09T14:08:04;0.82;;;0.60;;
43919;SDS011;29578;51.946;5.874;2022-09-09T14:10:31;1.15;;;0.60;;
43919;SDS011;29578;51.946;5.874;2022-09-09T14:12:56;1.38;;;0.70;;
43919;SDS011;29578;51.946;5.874;2022-09-09T14:15:22;0.70;;;0.70;;
43919;SDS011;29578;51.946;5.874;2022-09-09T14:17:48;0.50;;;0.50;;
43919;SDS011;29578;51.946;5.874;2022-09-09T14:20:14;2.90;;;0.93;;
43919;SDS011;29578;51.946;5.874;2022-09-09T14:22:40;1.27;;;0.70;;
43919;SDS011;29578;51.946;5.874;2022-09-09T14:25:07;1.50;;;0.70;;
43919;SDS011;29578;51.946;5.874;2022-09-09T14:27:33;0.90;;;0.63;;
43919;SDS011;29578;51.946;5.874;2022-09-09T14:29:58;0.50;;;0.50;;
43919;SDS011;29578;51.946;5.874;2022-09-09T14:32:25;1.85;;;0.60;;
43919;SDS011;29578;51.946;5.874;2022-09-09T14:34:51;0.90;;;0.68;;
43919;SDS011;29578;51.946;5.874;2022-09-09T14:37:17;1.52;;;0.60;;
43919;SDS011;29578;51.946;5.874;2022-09-09T14:39:44;0.93;;;0.50;;
43919;SDS011;29578;51.946;5.874;2022-09-09T14:42:11;0.50;;;0.47;;
43919;SDS011;29578;51.946;5.874;2022-09-09T14:44:38;1.35;;;0.50;;
43919;SDS011;29578;51.946;5.874;2022-09-09T14:47:05;0.40;;;0.40;;
43919;SDS011;29578;51.946;5.874;2022-09-09T14:49:33;0.57;;;0.38;;
43919;SDS011;29578;51.946;5.874;2022-09-09T14:52:01;0.25;;;0.25;;
43919;SDS011;29578;51.946;5.874;2022-09-09T14:54:31;0.47;;;0.40;;
43919;SDS011;29578;51.946;5.874;2022-09-09T14:56:57;0.77;;;0.40;;
43919;SDS011;29578;51.946;5.874;2022-09-09T14:59:24;1.05;;;0.57;;
43919;SDS011;29578;51.946;5.874;2022-09-09T15:01:50;0.75;;;0.50;;
43919;SDS011;29578;51.946;5.874;2022-09-09T15:04:15;0.60;;;0.50;;
43919;SDS011;29578;51.946;5.874;2022-09-09T15:06:42;0.93;;;0.55;;
43919;SDS011;29578;51.946;5.874;2022-09-09T15:09:09;0.47;;;0.47;;
43919;SDS011;29578;51.946;5.874;2022-09-09T15:11:36;2.10;;;0.55;;
43919;SDS011;29578;51.946;5.874;2022-09-09T15:14:03;1.10;;;0.57;;
43919;SDS011;29578;51.946;5.874;2022-09-09T15:16:29;1.42;;;0.60;;
43919;SDS011;29578;51.946;5.874;2022-09-09T15:18:57;0.80;;;0.40;;
43919;SDS011;29578;51.946;5.874;2022-09-09T15:21:25;0.65;;;0.45;;
43919;SDS011;29578;51.946;5.874;2022-09-09T15:23:55;1.23;;;0.60;;
43919;SDS011;29578;51.946;5.874;2022-09-09T15:26:22;1.58;;;0.52;;
43919;SDS011;29578;51.946;5.874;2022-09-09T15:28:48;0.60;;;0.40;;
43919;SDS011;29578;51.946;5.874;2022-09-09T15:31:22;0.60;;;0.57;;
43919;SDS011;29578;51.946;5.874;2022-09-09T15:33:51;2.05;;;0.60;;
43919;SDS011;29578;51.946;5.874;2022-09-09T15:36:25;0.73;;;0.40;;
43919;SDS011;29578;51.946;5.874;2022-09-09T15:38:53;0.38;;;0.38;;
43919;SDS011;29578;51.946;5.874;2022-09-09T15:41:20;0.32;;;0.30;;
43919;SDS011;29578;51.946;5.874;2022-09-09T15:43:47;0.40;;;0.40;;
43919;SDS011;29578;51.946;5.874;2022-09-09T15:46:34;1.65;;;0.55;;
43919;SDS011;29578;51.946;5.874;2022-09-09T15:49:06;1.27;;;0.60;;
43919;SDS011;29578;51.946;5.874;2022-09-09T15:51:35;1.75;;;0.60;;
43919;SDS011;29578;51.946;5.874;2022-09-09T15:54:02;0.40;;;0.40;;
43919;SDS011;29578;51.946;5.874;2022-09-09T15:56:29;1.50;;;0.45;;
43919;SDS011;29578;51.946;5.874;2022-09-09T15:58:55;0.40;;;0.40;;
43919;SDS011;29578;51.946;5.874;2022-09-09T16:01:22;0.85;;;0.47;;
43919;SDS011;29578;51.946;5.874;2022-09-09T16:03:48;0.82;;;0.40;;
43919;SDS011;29578;51.946;5.874;2022-09-09T16:06:18;1.50;;;0.55;;
43919;SDS011;29578;51.946;5.874;2022-09-09T16:08:47;0.75;;;0.50;;
43919;SDS011;29578;51.946;5.874;2022-09-09T16:11:16;0.80;;;0.45;;
43919;SDS011;29578;51.946;5.874;2022-09-09T16:13:46;0.80;;;0.40;;
43919;SDS011;29578;51.946;5.874;2022-09-09T16:16:14;0.65;;;0.40;;
43919;SDS011;29578;51.946;5.874;2022-09-09T16:18:42;0.20;;;0.20;;
43919;SDS011;29578;51.946;5.874;2022-09-09T16:21:13;0.60;;;0.30;;
43919;SDS011;29578;51.946;5.874;2022-09-09T16:26:08;0.47;;;0.22;;